createdAt,value
2023-04-30T00:02:24.329Z,95462.59
2023-04-30T00:06:07.236Z,95462.97
2023-04-30T00:09:51.238Z,95470.69
2023-04-30T00:13:34.641Z,95474.34
2023-04-30T00:17:18.638Z,95487.72
2023-04-30T00:21:01.335Z,95482.25
2023-04-30T00:24:44.192Z,95481.63
2023-04-30T00:28:26.867Z,95491.53
2023-04-30T00:32:09.544Z,95487.06
2023-04-30T00:35:53.674Z,95484.41
2023-04-30T00:39:36.375Z,95492.91
2023-04-30T00:43:18.976Z,95484.78
2023-04-30T00:47:01.591Z,95492.28
2023-04-30T00:50:45.310Z,95483.97
2023-04-30T00:54:29.430Z,95491.63
2023-04-30T00:58:12.135Z,95487.56
2023-04-30T01:01:55.074Z,95490.78
2023-04-30T01:05:37.706Z,95496.03
2023-04-30T01:09:20.789Z,95490.13
2023-04-30T01:13:13.902Z,95491.94
2023-04-30T01:17:04.691Z,95503.94
2023-04-30T01:20:50.796Z,95501.34
2023-04-30T01:24:51.244Z,95507.03
2023-04-30T01:28:37.123Z,95505.41
2023-04-30T01:32:19.828Z,95511.72
2023-04-30T01:36:21.142Z,95500.16
2023-04-30T01:40:15.130Z,95504.22
2023-04-30T01:44:10.054Z,95505.03
2023-04-30T01:47:57.456Z,95504.63
2023-04-30T01:51:42.254Z,95510.31
2023-04-30T01:55:29.425Z,95510.75
2023-04-30T01:59:15.149Z,95509.72
2023-04-30T02:02:58.129Z,95508.50
2023-04-30T02:06:41.517Z,95511.94
2023-04-30T02:10:25.820Z,95504.03
2023-04-30T02:14:08.455Z,95508.72
2023-04-30T02:17:52.595Z,95512.75
2023-04-30T02:21:35.311Z,95509.50
2023-04-30T02:25:18.137Z,95507.47
2023-04-30T02:29:00.775Z,95507.47
2023-04-30T02:32:43.452Z,95511.13
2023-04-30T02:36:27.529Z,95515.22
2023-04-30T02:40:11.694Z,95517.63
2023-04-30T02:43:54.411Z,95528.56
2023-04-30T02:47:37.215Z,95528.56
2023-04-30T02:51:20.017Z,95531.41
2023-04-30T02:55:04.262Z,95527.38
2023-04-30T02:58:46.919Z,95528.19
2023-04-30T03:02:29.574Z,95538.38
2023-04-30T03:06:12.332Z,95531.69
2023-04-30T03:09:55.250Z,95536.38
2023-04-30T03:13:39.428Z,95531.09
2023-04-30T03:17:22.147Z,95531.09
2023-04-30T03:21:04.852Z,95531.09
2023-04-30T03:24:47.733Z,95529.06
2023-04-30T03:28:30.366Z,95527.84
2023-04-30T03:32:14.393Z,95515.28
2023-04-30T03:35:57.024Z,95522.59
2023-04-30T03:39:39.834Z,95509.22
2023-04-30T03:43:23.096Z,95510.84
2023-04-30T03:47:05.923Z,95510.44
2023-04-30T03:50:50.214Z,95506.78
2023-04-30T03:54:33.785Z,95501.31
2023-04-30T03:58:16.490Z,95500.31
2023-04-30T04:01:59.153Z,95508.19
2023-04-30T04:05:42.017Z,95512.44
2023-04-30T04:09:25.972Z,95505.16
2023-04-30T04:13:08.633Z,95509.84
2023-04-30T04:16:51.542Z,95508.41
2023-04-30T04:20:34.299Z,95520.16
2023-04-30T04:24:16.989Z,95526.63
2023-04-30T04:28:01.020Z,95520.38
2023-04-30T04:31:43.781Z,95535.97
2023-04-30T04:35:26.726Z,95542.25
2023-04-30T04:39:09.373Z,95536.34
2023-04-30T04:42:52.395Z,95537.97
2023-04-30T04:46:38.688Z,95540.41
2023-04-30T04:50:21.499Z,95545.28
2023-04-30T04:54:04.599Z,95542.84
2023-04-30T04:57:47.291Z,95537.78
2023-04-30T05:01:29.970Z,95542.44
2023-04-30T05:05:13.999Z,95539.00
2023-04-30T05:08:56.692Z,95551.78
2023-04-30T05:12:39.337Z,95555.81
2023-04-30T05:16:21.976Z,95551.38
2023-04-30T05:20:07.197Z,95561.09
2023-04-30T05:23:51.236Z,95563.91
2023-04-30T05:27:34.163Z,95560.88
2023-04-30T05:31:20.943Z,95567.56
2023-04-30T05:35:07.270Z,95560.25
2023-04-30T05:38:51.688Z,95564.94
2023-04-30T05:42:34.467Z,95569.00
2023-04-30T05:46:17.354Z,95573.25
2023-04-30T05:50:00.049Z,95571.84
2023-04-30T05:53:42.718Z,95560.50
2023-04-30T05:57:26.758Z,95564.75
2023-04-30T06:01:11.090Z,95554.63
2023-04-30T06:04:53.859Z,95557.03
2023-04-30T06:08:36.529Z,95572.44
2023-04-30T06:12:19.142Z,95564.72
2023-04-30T06:16:03.422Z,95568.00
2023-04-30T06:19:46.095Z,95557.03
2023-04-30T06:23:28.757Z,95561.88
2023-04-30T06:27:11.392Z,95545.88
2023-04-30T06:30:54.340Z,95542.41
2023-04-30T06:34:39.551Z,95556.56
2023-04-30T06:38:22.193Z,95552.31
2023-04-30T06:42:05.061Z,95551.66
2023-04-30T06:45:47.714Z,95542.28
2023-04-30T06:49:33.391Z,95545.44
2023-04-30T06:53:17.407Z,95554.75
2023-04-30T06:57:00.053Z,95546.59
2023-04-30T07:00:42.759Z,95547.84
2023-04-30T07:04:26.122Z,95549.47
2023-04-30T07:08:09.004Z,95551.09
2023-04-30T07:11:53.019Z,95536.06
2023-04-30T07:15:35.772Z,95550.28
2023-04-30T07:19:18.558Z,95544.56
2023-04-30T07:23:01.219Z,95544.16
2023-04-30T07:26:43.902Z,95535.53
2023-04-30T07:30:28.018Z,95546.88
2023-04-30T07:34:10.654Z,95550.44
2023-04-30T07:37:53.353Z,95549.19
2023-04-30T07:41:36.130Z,95548.91
2023-04-30T07:45:18.952Z,95543.72
2023-04-30T07:49:04.057Z,95539.63
2023-04-30T07:52:46.704Z,95529.38
2023-04-30T07:56:29.359Z,95533.03
2023-04-30T08:00:13.508Z,95523.81
2023-04-30T08:03:56.306Z,95532.19
2023-04-30T08:07:41.592Z,95534.59
2023-04-30T08:11:24.194Z,95537.66
2023-04-30T08:15:08.455Z,95538.13
2023-04-30T08:18:51.316Z,95547.38
2023-04-30T08:22:34.118Z,95536.50
2023-04-30T08:26:18.149Z,95529.31
2023-04-30T08:30:03.443Z,95526.06
2023-04-30T08:33:46.058Z,95529.56
2023-04-30T08:37:28.716Z,95529.56
2023-04-30T08:41:13.168Z,95538.69
2023-04-30T08:44:57.190Z,95524.88
2023-04-30T08:48:40.665Z,95530.94
2023-04-30T08:52:23.669Z,95538.28
2023-04-30T08:56:07.066Z,95528.91
2023-04-30T08:59:49.748Z,95540.19
2023-04-30T09:03:33.917Z,95533.91
2023-04-30T09:07:16.839Z,95533.38
2023-04-30T09:10:59.497Z,95540.56
2023-04-30T09:14:42.324Z,95539.88
2023-04-30T09:18:24.984Z,95536.72
2023-04-30T09:22:22.141Z,95539.03
2023-04-30T09:26:04.902Z,95536.88
2023-04-30T09:29:47.849Z,95544.59
2023-04-30T09:33:46.638Z,95539.25
2023-04-30T09:37:38.156Z,95538.69
2023-04-30T09:41:25.658Z,95543.97
2023-04-30T09:45:09.732Z,95539.66
2023-04-30T09:49:03.803Z,95536.88
2023-04-30T09:52:54.127Z,95544.16
2023-04-30T09:56:40.802Z,95537.31
2023-04-30T10:00:24.116Z,95538.94
2023-04-30T10:04:07.115Z,95544.13
2023-04-30T10:07:51.195Z,95538.59
2023-04-30T10:11:34.793Z,95532.59
2023-04-30T10:15:21.192Z,95528.34
2023-04-30T10:19:08.463Z,95536.88
2023-04-30T10:22:52.903Z,95541.72
2023-04-30T10:26:36.159Z,95521.06
2023-04-30T10:30:19.398Z,95521.66
2023-04-30T10:34:07.983Z,95514.25
2023-04-30T10:37:55.969Z,95515.06
2023-04-30T10:41:40.150Z,95512.50
2023-04-30T10:45:35.893Z,95507.31
2023-04-30T10:49:26.057Z,95499.56
2023-04-30T10:53:13.970Z,95489.75
2023-04-30T10:57:11.557Z,95491.38
2023-04-30T11:01:02.996Z,95487.56
2023-04-30T11:05:12.868Z,95479.19
2023-04-30T11:09:05.051Z,95482.09
2023-04-30T11:12:51.680Z,95479.63
2023-04-30T11:16:36.612Z,95486.66
2023-04-30T11:20:22.514Z,95473.59
2023-04-30T11:24:08.012Z,95481.41
2023-04-30T11:27:52.572Z,95474.00
2023-04-30T11:31:35.578Z,95467.59
2023-04-30T11:35:19.793Z,95467.72
2023-04-30T11:39:06.166Z,95468.38
2023-04-30T11:42:50.702Z,95476.00
2023-04-30T11:46:33.527Z,95470.94
2023-04-30T11:50:17.448Z,95462.25
2023-04-30T11:54:01.001Z,95467.22
2023-04-30T11:57:44.825Z,95460.50
2023-04-30T12:01:29.485Z,95459.56
2023-04-30T12:05:17.038Z,95459.06
2023-04-30T12:09:01.507Z,95463.84
2023-04-30T12:12:45.006Z,95462.44
2023-04-30T12:16:29.778Z,95469.22
2023-04-30T12:20:14.633Z,95465.84
2023-04-30T12:23:57.541Z,95462.63
2023-04-30T12:27:40.598Z,95448.69
2023-04-30T12:31:23.276Z,95453.59
2023-04-30T12:35:08.587Z,95452.31
2023-04-30T12:38:51.174Z,95453.44
2023-04-30T12:42:35.010Z,95444.75
2023-04-30T12:46:27.686Z,95432.34
2023-04-30T12:50:13.036Z,95433.22
2023-04-30T12:53:55.785Z,95430.03
2023-04-30T12:57:38.451Z,95424.81
2023-04-30T13:01:23.851Z,95433.16
2023-04-30T13:05:08.834Z,95416.53
2023-04-30T13:08:58.930Z,95418.50
2023-04-30T13:12:43.804Z,95404.84
2023-04-30T13:16:26.720Z,95405.72
2023-04-30T13:20:11.111Z,95404.13
2023-04-30T13:23:56.660Z,95393.19
2023-04-30T13:27:40.698Z,95394.16
2023-04-30T13:31:24.666Z,95390.38
2023-04-30T13:35:12.520Z,95379.44
2023-04-30T13:38:58.843Z,95378.50
2023-04-30T13:42:43.241Z,95373.50
2023-04-30T13:46:26.086Z,95366.09
2023-04-30T13:50:09.713Z,95367.06
2023-04-30T13:53:52.721Z,95369.78
2023-04-30T13:57:39.771Z,95358.53
2023-04-30T14:01:22.646Z,95367.78
2023-04-30T14:05:06.936Z,95363.84
2023-04-30T14:08:50.563Z,95353.72
2023-04-30T14:12:34.707Z,95347.31
2023-04-30T14:16:19.914Z,95354.69
2023-04-30T14:20:02.624Z,95348.19
2023-04-30T14:23:47.056Z,95349.78
2023-04-30T14:27:29.775Z,95343.47
2023-04-30T14:31:12.703Z,95336.22
2023-04-30T14:34:56.796Z,95329.09
2023-04-30T14:38:39.408Z,95341.69
2023-04-30T14:42:22.102Z,95330.75
2023-04-30T14:46:06.352Z,95325.19
2023-04-30T14:49:52.022Z,95332.66
2023-04-30T14:53:37.160Z,95331.50
2023-04-30T14:57:19.839Z,95335.63
2023-04-30T15:01:02.929Z,95336.13
2023-04-30T15:04:46.307Z,95336.88
2023-04-30T15:08:29.557Z,95340.09
2023-04-30T15:12:14.061Z,95339.03
2023-04-30T15:15:56.768Z,95334.19
2023-04-30T15:19:39.493Z,95319.81
2023-04-30T15:23:22.666Z,95317.13
2023-04-30T15:27:05.449Z,95332.78
2023-04-30T15:30:49.601Z,95326.22
2023-04-30T15:34:32.244Z,95321.69
2023-04-30T15:38:14.948Z,95321.53
2023-04-30T15:41:57.852Z,95325.28
2023-04-30T15:45:40.660Z,95321.13
2023-04-30T15:49:25.084Z,95321.75
2023-04-30T15:53:08.073Z,95312.28
2023-04-30T15:56:51.455Z,95299.41
2023-04-30T16:00:34.439Z,95305.78
2023-04-30T16:04:17.342Z,95302.44
2023-04-30T16:08:01.686Z,95314.78
2023-04-30T16:11:44.344Z,95309.00
2023-04-30T16:15:27.609Z,95306.94
2023-04-30T16:19:12.357Z,95307.53
2023-04-30T16:22:56.349Z,95296.31
2023-04-30T16:26:40.514Z,95302.47
2023-04-30T16:30:23.375Z,95301.59
2023-04-30T16:34:11.288Z,95303.13
2023-04-30T16:37:54.942Z,95296.00
2023-04-30T16:41:37.621Z,95293.13
2023-04-30T16:45:21.914Z,95294.53
2023-04-30T16:49:04.727Z,95294.47
2023-04-30T16:52:47.521Z,95304.91
2023-04-30T16:56:30.256Z,95299.34
2023-04-30T17:00:14.510Z,95296.44
2023-04-30T17:03:58.680Z,95297.41
2023-04-30T17:07:43.309Z,95300.81
2023-04-30T17:11:26.169Z,95290.41
2023-04-30T17:15:09.566Z,95298.16
2023-04-30T17:18:52.190Z,95298.25
2023-04-30T17:22:38.156Z,95297.75
2023-04-30T17:26:21.518Z,95300.75
2023-04-30T17:30:06.362Z,95301.09
2023-04-30T17:33:49.135Z,95299.00
2023-04-30T17:37:31.886Z,95303.50
2023-04-30T17:41:18.429Z,95295.25
2023-04-30T17:45:02.211Z,95299.34
2023-04-30T17:48:45.019Z,95309.31
2023-04-30T17:52:27.765Z,95292.16
2023-04-30T17:56:10.465Z,95294.19
2023-04-30T17:59:54.995Z,95297.19
2023-04-30T18:03:38.039Z,95304.94
2023-04-30T18:07:20.909Z,95299.09
2023-04-30T18:11:03.781Z,95301.09
2023-04-30T18:14:46.502Z,95306.28
2023-04-30T18:22:43.279Z,95302.69
2023-04-30T18:26:26.192Z,95303.16
2023-04-30T18:30:09.681Z,95305.00
2023-04-30T18:33:53.849Z,95308.00
2023-04-30T18:37:36.535Z,95311.78
2023-04-30T18:41:21.082Z,95307.47
2023-04-30T18:45:04.096Z,95301.47
2023-04-30T18:48:46.801Z,95307.66
2023-04-30T18:52:30.909Z,95313.63
2023-04-30T18:56:14.468Z,95316.28
2023-04-30T18:59:57.502Z,95326.50
2023-04-30T19:03:40.633Z,95313.59
2023-04-30T19:07:23.360Z,95323.81
2023-04-30T19:11:07.374Z,95323.47
2023-04-30T19:14:50.247Z,95324.50
2023-04-30T19:18:33.568Z,95321.06
2023-04-30T19:22:16.217Z,95326.78
2023-04-30T19:26:02.071Z,95334.81
2023-04-30T19:29:47.076Z,95331.00
2023-04-30T19:33:30.977Z,95327.78
2023-04-30T19:37:13.741Z,95321.31
2023-04-30T19:40:56.406Z,95322.78
2023-04-30T19:44:39.144Z,95328.28
2023-04-30T19:48:24.187Z,95323.22
2023-04-30T19:52:07.951Z,95334.09
2023-04-30T19:55:51.129Z,95328.47
2023-04-30T19:59:33.837Z,95330.75
2023-04-30T20:03:17.528Z,95334.63
2023-04-30T20:07:01.586Z,95328.75
2023-04-30T20:10:44.252Z,95316.81
2023-04-30T20:14:27.224Z,95327.22
2023-04-30T20:18:10.361Z,95326.06
2023-04-30T20:21:53.622Z,95314.91
2023-04-30T20:25:37.713Z,95312.72
2023-04-30T20:29:20.708Z,95315.78
2023-04-30T20:33:03.868Z,95316.69
2023-04-30T20:36:48.889Z,95313.44
2023-04-30T20:40:31.896Z,95306.53
2023-04-30T20:44:15.900Z,95308.16
2023-04-30T20:47:58.533Z,95300.06
2023-04-30T20:51:41.312Z,95300.50
2023-04-30T20:55:26.887Z,95297.28
2023-04-30T20:59:09.551Z,95308.25
2023-04-30T21:02:54.637Z,95298.13
2023-04-30T21:06:38.309Z,95299.59
2023-04-30T21:10:21.276Z,95295.56
2023-04-30T21:14:04.104Z,95286.25
2023-04-30T21:17:48.290Z,95302.53
2023-04-30T21:21:32.365Z,95286.19
2023-04-30T21:25:15.021Z,95281.34
2023-04-30T21:28:57.720Z,95288.31
2023-04-30T21:32:44.045Z,95275.97
2023-04-30T21:36:29.889Z,95276.19
2023-04-30T21:40:14.441Z,95279.06
2023-04-30T21:43:59.796Z,95275.03
2023-04-30T21:47:42.770Z,95269.75
2023-04-30T21:51:25.768Z,95277.84
2023-04-30T21:55:09.707Z,95272.78
2023-04-30T21:58:53.753Z,95271.81
2023-04-30T22:02:36.972Z,95270.22
2023-04-30T22:06:19.832Z,95267.84
2023-04-30T22:10:02.872Z,95253.34
2023-04-30T22:13:45.527Z,95256.56
2023-04-30T22:17:29.747Z,95253.69
2023-04-30T22:21:12.441Z,95247.19
2023-04-30T22:24:55.171Z,95247.63
2023-04-30T22:28:38.061Z,95252.91
2023-04-30T22:32:20.799Z,95242.41
2023-04-30T22:36:06.287Z,95234.28
2023-04-30T22:39:49.002Z,95230.03
2023-04-30T22:43:31.837Z,95238.38
2023-04-30T22:47:14.580Z,95230.09
2023-04-30T22:50:58.717Z,95222.03
2023-04-30T22:54:42.901Z,95224.88
2023-04-30T22:58:25.578Z,95223.47
2023-04-30T23:02:08.239Z,95221.28
2023-04-30T23:05:51.604Z,95209.75
2023-04-30T23:09:34.884Z,95211.38
2023-04-30T23:13:19.363Z,95217.50
2023-04-30T23:17:02.179Z,95205.31
2023-04-30T23:20:44.838Z,95206.56
2023-04-30T23:24:27.564Z,95200.91
2023-04-30T23:28:10.265Z,95205.38
2023-04-30T23:31:55.200Z,95198.13
2023-04-30T23:35:38.145Z,95193.28
2023-04-30T23:39:20.902Z,95186.84
2023-04-30T23:43:03.542Z,95188.50
2023-04-30T23:46:46.902Z,95194.00
2023-04-30T23:50:31.210Z,95192.38
2023-04-30T23:54:13.889Z,95192.22
2023-04-30T23:57:59.364Z,95179.25
